Delta Virtual Airport Information Service

Belem Val de Cans International Airport

ICAO: SBBE Country: Brazil
Latitude: -1.37925 Longitude: -48.4762
Latest Arrival : AZA4228 (1A) (SBEG-SBBE) Latest Departure : AZA5316 (1B) (SBBE-SBSL)


WX CaptureLIVE
Data provided by noaa.gov | Fetched at 03:19:21

METAR : SBBE 300800Z 00000KT 9999 SCT012 BKN100 23/23 Q1007

TAF : SBBE 300800Z 00000KT 9999 SCT012 BKN100 23/23 Q1007


Runway Data for SBBE
Data provided by openaviationdata.com

Runway ID Mag Var Hdg Length Elevation Surface ILS Freq ILS Id ILS Slope
2 -20 24° 6027 ft 54 ft Asphalt -- -- --
6 -20 65° 9202 ft 54 ft Asphalt 109.3 IBE 3
20 -20 204° 6027 ft 54 ft Asphalt -- -- --
24 -20 245° 9202 ft 54 ft Asphalt -- -- --

Belem Val de Cans International Airport, Brazil
Use only for reference purposes



Not for navigational purposes.